Time;durP1;ratioP1;P1;durP2;ratioP2;P2;SDS_P1;SDS_P2;PMS_P1;PMS_P2;Temp;Humidity;BMP_temperature;BMP_pressure;BME280_temperature;BME280_humidity;BME280_pressure;Samples;Min_cycle;Max_cycle;Signal;HPM_P1;HPM_P2
2023/09/28 00:02:17;;;;;;;4.10;3.70;;;;;;;14.80;100.00;100339.19;4975159;28;20230;-77
2023/09/28 00:04:42;;;;;;;4.47;4.17;;;;;;;14.82;100.00;100339.16;4957379;28;20714;-76
2023/09/28 00:07:08;;;;;;;3.70;3.40;;;;;;;14.85;100.00;100339.94;4961208;28;20693;-78
2023/09/28 00:09:33;;;;;;;4.30;3.90;;;;;;;14.87;100.00;100348.56;4970407;28;20288;-77
2023/09/28 00:11:58;;;;;;;4.77;4.37;;;;;;;14.86;100.00;100348.59;4967467;28;20194;-78
2023/09/28 00:14:24;;;;;;;4.80;4.40;;;;;;;14.81;100.00;100348.72;4953340;28;20236;-77
2023/09/28 00:16:49;;;;;;;4.40;4.07;;;;;;;14.77;100.00;100347.94;4959035;28;20192;-77
2023/09/28 00:19:15;;;;;;;4.10;3.80;;;;;;;14.76;100.00;100342.75;4962880;28;20299;-76
2023/09/28 00:21:40;;;;;;;4.10;3.80;;;;;;;14.76;100.00;100342.75;4962435;28;20656;-76
2023/09/28 00:24:09;;;;;;;4.40;4.00;;;;;;;14.74;100.00;100336.75;4958480;28;20182;-75
2023/09/28 00:26:35;;;;;;;4.57;3.77;;;;;;;14.74;100.00;100342.81;4958656;28;20194;-77
2023/09/28 00:29:00;;;;;;;3.60;3.40;;;;;;;14.75;100.00;100338.44;4957800;28;20212;-77
2023/09/28 00:31:25;;;;;;;4.00;3.70;;;;;;;14.76;100.00;100337.53;4961416;28;20190;-77
2023/09/28 00:33:50;;;;;;;4.47;4.17;;;;;;;14.77;100.00;100344.47;4959997;28;20186;-76
2023/09/28 00:36:16;;;;;;;4.40;4.10;;;;;;;14.77;100.00;100339.25;4955652;28;20213;-77
2023/09/28 00:38:42;;;;;;;4.33;3.93;;;;;;;14.74;100.00;100341.97;4960669;28;21058;-76
2023/09/28 00:41:07;;;;;;;4.03;3.73;;;;;;;14.73;100.00;100343.69;4958710;28;20670;-77
2023/09/28 00:43:32;;;;;;;4.30;4.00;;;;;;;14.73;100.00;100348.91;4953668;28;20190;-77
2023/09/28 00:45:59;;;;;;;4.27;3.97;;;;;;;14.72;100.00;100342.00;4949849;28;20721;-77
2023/09/28 00:48:25;;;;;;;4.57;4.17;;;;;;;14.72;100.00;100346.34;4965854;28;20209;-77
2023/09/28 00:50:51;;;;;;;4.30;4.00;;;;;;;14.71;100.00;100345.47;4966974;28;20531;-77
2023/09/28 00:53:16;;;;;;;4.30;4.00;;;;;;;14.73;100.00;100337.66;4966607;28;20173;-77
2023/09/28 00:55:43;;;;;;;4.90;4.50;;;;;;;14.72;100.00;100330.72;4966061;28;20978;-76
2023/09/28 00:58:11;;;;;;;4.80;4.40;;;;;;;14.72;100.00;100334.16;4957391;28;20210;-78
2023/09/28 01:00:38;;;;;;;4.80;4.40;;;;;;;14.72;100.00;100338.53;4961715;28;20301;-77
2023/09/28 01:03:08;;;;;;;5.50;5.00;;;;;;;14.72;100.00;100328.97;4963180;28;20287;-77
2023/09/28 01:05:34;;;;;;;4.90;4.50;;;;;;;14.71;100.00;100329.00;4964520;28;20190;-78
2023/09/28 01:08:14;;;;;;;4.47;4.17;;;;;;;14.68;100.00;100329.09;4959737;28;20219;-77
2023/09/28 01:10:41;;;;;;;4.43;4.03;;;;;;;14.63;100.00;100334.38;4960198;28;20193;-77
2023/09/28 01:13:11;;;;;;;4.27;3.97;;;;;;;14.59;100.00;100332.75;4964890;28;20186;-78
2023/09/28 01:15:46;;;;;;;4.20;3.90;;;;;;;14.57;100.00;100339.72;4956290;28;20195;-78
2023/09/28 01:18:17;;;;;;;4.10;3.80;;;;;;;14.56;100.00;100344.09;4960524;28;20690;-77
2023/09/28 01:20:44;;;;;;;4.80;4.13;;;;;;;14.55;100.00;100359.75;4964284;28;20679;-77
2023/09/28 01:23:10;;;;;;;4.57;4.23;;;;;;;14.54;100.00;100356.31;4958989;28;20194;-77
2023/09/28 01:25:36;;;;;;;4.20;3.90;;;;;;;14.51;100.00;100352.91;4959659;28;20197;-77
2023/09/28 01:28:02;;;;;;;4.47;4.07;;;;;;;14.50;100.00;100352.06;4969085;28;20602;-76
2023/09/28 01:30:28;;;;;;;4.10;3.80;;;;;;;14.50;100.00;100352.06;4967816;28;20225;-77
2023/09/28 01:32:53;;;;;;;3.97;3.67;;;;;;;14.52;100.00;100357.25;4962313;28;20197;-77
2023/09/28 01:35:19;;;;;;;4.30;4.00;;;;;;;14.54;100.00;100358.03;4963230;28;20272;-77
2023/09/28 01:38:03;;;;;;;4.20;3.90;;;;;;;14.54;100.00;100364.13;4959954;28;20197;-79
2023/09/28 01:40:29;;;;;;;3.70;3.40;;;;;;;14.54;100.00;100377.13;4962990;28;20249;-77
2023/09/28 01:42:55;;;;;;;4.57;3.93;;;;;;;14.56;100.00;100383.16;4972345;28;20203;-79
2023/09/28 01:45:20;;;;;;;3.87;3.50;;;;;;;14.58;100.00;100381.38;4991985;28;20234;-78
2023/09/28 01:47:45;;;;;;;3.80;3.50;;;;;;;14.60;100.00;100383.94;4978663;28;20193;-76
2023/09/28 01:50:11;;;;;;;4.10;3.70;;;;;;;14.62;100.00;100384.75;4963657;28;20182;-77
2023/09/28 01:52:36;;;;;;;4.20;3.90;;;;;;;14.63;100.00;100389.91;4964422;28;21159;-77
2023/09/28 01:55:02;;;;;;;4.07;3.63;;;;;;;14.66;100.00;100385.53;4967670;28;20337;-78
2023/09/28 01:57:27;;;;;;;3.80;3.50;;;;;;;14.68;100.00;100392.44;4967258;28;20198;-77
2023/09/28 01:59:52;;;;;;;3.93;3.63;;;;;;;14.71;100.00;100396.75;4961765;28;20225;-77
2023/09/28 02:02:20;;;;;;;4.00;3.70;;;;;;;14.73;100.00;100387.97;4966176;28;20202;-78
2023/09/28 02:04:46;;;;;;;4.07;3.77;;;;;;;14.75;100.00;100381.00;4965419;28;20245;-77
2023/09/28 02:07:11;;;;;;;4.43;4.03;;;;;;;14.77;100.00;100371.41;4964124;28;20186;-76
2023/09/28 02:09:37;;;;;;;4.33;4.03;;;;;;;14.80;100.00;100378.25;4964785;28;20593;-77
2023/09/28 02:12:03;;;;;;;3.90;3.60;;;;;;;14.81;100.00;100368.72;4968996;28;20189;-79
2023/09/28 02:14:29;;;;;;;3.73;3.43;;;;;;;14.82;100.00;100367.81;4957566;28;20192;-77
2023/09/28 02:16:55;;;;;;;4.30;4.00;;;;;;;14.84;100.00;100364.28;4967200;28;20190;-76
2023/09/28 02:19:20;;;;;;;5.50;4.10;;;;;;;14.84;100.00;100361.66;4963728;28;20343;-77
2023/09/28 02:21:47;;;;;;;3.77;3.47;;;;;;;14.85;100.00;100345.16;4965632;28;20273;-77
2023/09/28 02:24:12;;;;;;;4.20;3.90;;;;;;;14.87;100.00;100334.66;4959104;28;20714;-79
2023/09/28 02:26:37;;;;;;;4.20;3.90;;;;;;;14.87;100.00;100334.66;4964862;28;20193;-77
2023/09/28 02:29:03;;;;;;;4.30;4.00;;;;;;;14.89;100.00;100330.28;4968860;28;20214;-77
2023/09/28 02:31:28;;;;;;;4.00;3.70;;;;;;;14.89;100.00;100335.50;4961283;28;20193;-77
2023/09/28 02:33:54;;;;;;;4.27;3.93;;;;;;;14.89;100.00;100327.66;4963434;28;20218;-77
2023/09/28 02:36:20;;;;;;;4.80;3.83;;;;;;;14.89;100.00;100336.38;4963189;28;20240;-77
2023/09/28 02:38:46;;;;;;;4.43;4.10;;;;;;;14.88;100.00;100339.00;4964579;28;20213;-77
2023/09/28 02:41:18;;;;;;;4.53;4.13;;;;;;;14.87;100.00;100334.66;4959127;28;20197;-78
2023/09/28 02:43:44;;;;;;;5.30;4.73;;;;;;;14.84;100.00;100342.56;4959987;28;20276;-77
2023/09/28 02:46:11;;;;;;;4.30;4.00;;;;;;;14.81;100.00;100332.25;4962131;28;20280;-79
2023/09/28 02:48:37;;;;;;;4.87;4.47;;;;;;;14.79;100.00;100340.06;4956214;28;20218;-77
2023/09/28 02:51:04;;;;;;;5.33;4.83;;;;;;;14.79;100.00;100340.06;4960364;28;20190;-78
2023/09/28 02:53:30;;;;;;;4.40;4.10;;;;;;;14.76;100.00;100347.97;4961668;28;20182;-76
2023/09/28 02:55:55;;;;;;;5.27;4.77;;;;;;;14.76;100.00;100356.66;4967858;28;20193;-77
2023/09/28 02:58:22;;;;;;;5.17;4.77;;;;;;;14.80;100.00;100348.75;4962985;28;20583;-77
2023/09/28 03:00:47;;;;;;;5.10;4.70;;;;;;;14.80;100.00;100383.47;4956518;28;20218;-77
2023/09/28 03:03:12;;;;;;;5.50;5.00;;;;;;;14.80;100.00;100362.63;4958536;28;20316;-78
2023/09/28 03:05:38;;;;;;;4.70;4.40;;;;;;;14.82;100.00;100379.09;4961501;28;20225;-77
2023/09/28 03:08:09;;;;;;;5.13;4.77;;;;;;;14.82;100.00;100368.66;4961767;28;20210;-77
2023/09/28 03:10:39;;;;;;;4.40;4.10;;;;;;;14.85;100.00;100381.63;4964395;28;20248;-78
2023/09/28 03:13:05;;;;;;;4.10;3.80;;;;;;;14.87;100.00;100387.66;4961652;28;20210;-78
2023/09/28 03:15:31;;;;;;;4.60;4.20;;;;;;;14.88;100.00;100371.13;4958062;28;20272;-77
2023/09/28 03:17:57;;;;;;;4.80;4.40;;;;;;;14.92;100.00;100371.91;4952079;28;20186;-77
2023/09/28 03:20:24;;;;;;;5.23;4.27;;;;;;;14.95;100.00;100384.84;4957694;28;20219;-77
2023/09/28 03:22:50;;;;;;;4.40;4.00;;;;;;;14.98;100.00;100396.94;4959771;28;20192;-78
2023/09/28 03:25:17;;;;;;;4.70;4.30;;;;;;;14.96;100.00;100407.41;4959508;28;20181;-78
2023/09/28 03:27:45;;;;;;;4.57;4.17;;;;;;;14.94;100.00;100399.63;4974496;28;20329;-79
2023/09/28 03:30:11;;;;;;;4.20;3.90;;;;;;;14.94;100.00;100411.81;4953437;28;20194;-77
2023/09/28 03:32:40;;;;;;;4.40;4.10;;;;;;;14.92;100.00;100414.44;4961444;28;20192;-78
2023/09/28 03:35:10;;;;;;;4.47;4.17;;;;;;;14.91;100.00;100399.69;4959469;28;20193;-78
2023/09/28 03:37:36;;;;;;;3.77;3.47;;;;;;;14.90;100.00;100397.13;4962097;28;20220;-78
2023/09/28 03:40:09;;;;;;;4.20;3.90;;;;;;;14.91;100.00;100401.44;4960443;28;20209;-80
2023/09/28 03:42:35;;;;;;;4.47;4.17;;;;;;;14.91;100.00;100407.50;4978864;28;20213;-79
2023/09/28 03:45:00;;;;;;;4.10;3.70;;;;;;;14.91;100.00;100404.06;4962724;28;20305;-77
2023/09/28 03:47:26;;;;;;;3.90;3.60;;;;;;;14.92;100.00;100408.38;4957622;28;20197;-77
2023/09/28 03:49:53;;;;;;;3.70;3.40;;;;;;;14.91;100.00;100410.09;4958191;28;20279;-79
2023/09/28 03:52:18;;;;;;;4.10;3.80;;;;;;;14.92;100.00;100413.59;4966789;28;20185;-78
2023/09/28 03:54:43;;;;;;;4.13;3.83;;;;;;;14.91;100.00;100417.09;4959323;28;20253;-78
2023/09/28 03:57:08;;;;;;;4.17;3.87;;;;;;;14.90;100.00;100423.19;4964869;28;20181;-77
2023/09/28 03:59:34;;;;;;;3.87;3.60;;;;;;;14.89;100.00;100424.09;4962170;28;20341;-78
2023/09/28 04:01:59;;;;;;;3.90;3.60;;;;;;;14.89;100.00;100419.75;4952401;28;20205;-77
2023/09/28 04:04:24;;;;;;;4.30;4.00;;;;;;;14.87;100.00;100418.91;4957615;28;20186;-77
2023/09/28 04:06:50;;;;;;;3.97;3.67;;;;;;;14.87;100.00;100431.94;4955060;28;20188;-78
2023/09/28 04:09:15;;;;;;;4.30;4.00;;;;;;;14.86;100.00;100434.56;4963431;28;20305;-78
2023/09/28 04:11:40;;;;;;;3.87;3.57;;;;;;;14.84;100.00;100432.00;4958158;28;20193;-78
2023/09/28 04:14:08;;;;;;;3.73;3.53;;;;;;;14.84;100.00;100431.16;4951668;28;20185;-78
2023/09/28 04:16:33;;;;;;;3.73;3.43;;;;;;;14.82;100.00;100428.59;4957394;28;20338;-78
2023/09/28 04:18:59;;;;;;;4.30;3.90;;;;;;;14.81;100.00;100420.81;4964876;28;20296;-78
2023/09/28 04:21:24;;;;;;;4.47;4.07;;;;;;;14.81;100.00;100416.44;4964274;28;20281;-76
2023/09/28 04:23:49;;;;;;;3.87;3.57;;;;;;;14.80;100.00;100419.94;4961275;28;20247;-79
2023/09/28 04:26:15;;;;;;;4.00;3.70;;;;;;;14.81;100.00;100411.25;4966395;28;20206;-78
2023/09/28 04:28:40;;;;;;;4.27;3.90;;;;;;;14.79;100.00;100407.81;4960871;28;20202;-78
2023/09/28 04:31:06;;;;;;;3.67;3.47;;;;;;;14.75;100.00;100401.84;4962498;28;20305;-78
2023/09/28 04:33:31;;;;;;;4.50;4.10;;;;;;;14.71;100.00;100405.41;4964347;28;20254;-77
2023/09/28 04:35:56;;;;;;;4.97;4.57;;;;;;;14.64;100.00;100404.66;4959043;28;20197;-78
2023/09/28 04:38:22;;;;;;;4.63;4.23;;;;;;;14.60;100.00;100403.00;4957909;28;20241;-79
2023/09/28 04:40:47;;;;;;;4.60;4.20;;;;;;;14.55;100.00;100394.47;4959473;28;20656;-78
2023/09/28 04:43:12;;;;;;;4.20;3.90;;;;;;;14.48;100.00;100391.16;4962855;28;20192;-78
2023/09/28 04:45:38;;;;;;;4.73;4.33;;;;;;;14.44;100.00;100386.91;4962674;28;20185;-77
2023/09/28 04:48:04;;;;;;;4.40;4.10;;;;;;;14.40;100.00;100393.06;4966274;28;20223;-78
2023/09/28 04:50:29;;;;;;;4.53;4.23;;;;;;;14.38;100.00;100394.00;4961936;28;20708;-79
2023/09/28 04:52:55;;;;;;;5.03;4.63;;;;;;;14.33;100.00;100396.72;4961643;28;20205;-78
2023/09/28 04:55:21;;;;;;;4.37;4.07;;;;;;;14.30;100.00;100408.03;4956671;28;20190;-77
2023/09/28 04:57:46;;;;;;;4.63;4.33;;;;;;;14.26;100.00;100428.97;4957246;28;20274;-76
2023/09/28 05:00:16;;;;;;;5.90;5.13;;;;;;;14.22;100.00;100432.56;4959892;28;20688;-77
2023/09/28 05:02:42;;;;;;;4.93;4.53;;;;;;;14.16;100.00;100428.31;4962445;28;20198;-76
2023/09/28 05:05:07;;;;;;;4.70;4.30;;;;;;;14.12;100.00;100443.16;4957147;28;20201;-78
2023/09/28 05:07:33;;;;;;;5.03;4.53;;;;;;;14.09;100.00;100448.41;4959477;28;20184;-77
2023/09/28 05:09:59;;;;;;;4.87;4.47;;;;;;;14.04;100.00;100458.06;4967560;28;20218;-77
2023/09/28 05:12:24;;;;;;;5.40;4.90;;;;;;;14.00;100.00;100457.25;4963854;28;20184;-76
2023/09/28 05:14:49;;;;;;;5.30;4.83;;;;;;;13.97;100.00;100461.69;4959647;28;20189;-75
2023/09/28 05:17:15;;;;;;;5.00;4.60;;;;;;;13.94;100.00;100457.41;4961681;28;20301;-79
2023/09/28 05:19:41;;;;;;;5.40;4.90;;;;;;;13.92;100.00;100473.91;4961695;28;20224;-77
2023/09/28 05:22:07;;;;;;;4.57;4.17;;;;;;;13.90;100.00;100481.75;4958127;28;20671;-77
2023/09/28 05:24:32;;;;;;;4.90;4.50;;;;;;;13.90;100.00;100488.72;4961510;28;20676;-76
2023/09/28 05:26:58;;;;;;;4.30;3.90;;;;;;;13.90;100.00;100494.75;4965698;28;20202;-76
2023/09/28 05:29:24;;;;;;;5.93;5.43;;;;;;;13.89;100.00;100490.44;4966884;28;20216;-75
2023/09/28 05:31:49;;;;;;;4.70;4.30;;;;;;;13.91;100.00;100490.44;4967418;28;20242;-75
2023/09/28 05:34:14;;;;;;;5.33;4.83;;;;;;;13.91;100.00;100482.63;4967373;28;20326;-76
2023/09/28 05:36:40;;;;;;;4.47;4.07;;;;;;;13.92;100.00;100487.78;4958480;28;20195;-77
2023/09/28 05:39:05;;;;;;;4.40;4.00;;;;;;;13.96;100.00;100478.16;4976957;28;20288;-79
2023/09/28 05:41:31;;;;;;;4.83;3.93;;;;;;;13.99;100.00;100478.97;4985138;28;20578;-76
2023/09/28 05:43:56;;;;;;;4.40;4.10;;;;;;;14.05;100.00;100469.31;4961889;28;20185;-75
2023/09/28 05:46:22;;;;;;;4.10;3.80;;;;;;;14.09;100.00;100465.78;4965662;28;20248;-76
2023/09/28 05:48:47;;;;;;;3.87;3.47;;;;;;;14.14;100.00;100461.34;4967418;28;20278;-79
2023/09/28 05:51:13;;;;;;;3.50;3.20;;;;;;;14.18;100.00;100463.84;4959443;28;20260;-78
2023/09/28 05:53:38;;;;;;;3.77;3.47;;;;;;;14.21;100.00;100459.47;4958707;28;20207;-77
2023/09/28 05:56:05;;;;;;;4.00;3.60;;;;;;;14.24;100.00;100454.16;4963020;28;20230;-77
2023/09/28 05:58:30;;;;;;;6.37;3.83;;;;;;;14.25;100.00;100454.16;4964509;28;20266;-76
2023/09/28 06:00:57;;;;;;;4.50;3.50;;;;;;;14.27;100.00;100451.50;4963182;28;20277;-75
2023/09/28 06:03:22;;;;;;;4.07;3.67;;;;;;;14.28;100.00;100445.41;4967519;28;20221;-76
2023/09/28 06:05:48;;;;;;;4.00;3.70;;;;;;;14.31;100.00;100451.41;4973358;28;20194;-77
2023/09/28 06:08:13;;;;;;;4.33;3.93;;;;;;;14.33;100.00;100449.63;4967776;28;20207;-76
2023/09/28 06:10:38;;;;;;;6.27;4.20;;;;;;;14.36;100.00;100451.34;4969297;28;20675;-77
2023/09/28 06:13:04;;;;;;;5.20;4.80;;;;;;;14.37;100.00;100457.38;4970336;28;20547;-78
2023/09/28 06:15:29;;;;;;;5.30;3.80;;;;;;;14.34;100.00;100450.50;4965662;28;20208;-76
2023/09/28 06:17:54;;;;;;;4.63;4.03;;;;;;;14.32;100.00;100450.50;4962783;28;20207;-78
2023/09/28 06:20:20;;;;;;;4.60;4.20;;;;;;;14.31;100.00;100445.34;4967015;28;20192;-78
2023/09/28 06:22:45;;;;;;;4.77;3.97;;;;;;;14.31;100.00;100442.75;4958583;28;20211;-78
2023/09/28 06:25:11;;;;;;;4.67;4.00;;;;;;;14.36;100.00;100443.53;4960027;28;20918;-77
2023/09/28 06:27:37;;;;;;;4.43;4.00;;;;;;;14.42;100.00;100440.75;4962582;28;20785;-77
2023/09/28 06:30:03;;;;;;;3.73;3.43;;;;;;;14.50;100.00;100437.13;4961939;28;20216;-77
2023/09/28 06:32:28;;;;;;;8.70;3.50;;;;;;;14.58;100.00;100441.28;4965330;28;20197;-78
2023/09/28 06:34:53;;;;;;;4.00;3.70;;;;;;;14.66;100.00;100456.72;4968404;28;20185;-77
2023/09/28 06:37:19;;;;;;;4.83;3.43;;;;;;;14.73;100.00;100467.91;4962153;28;20198;-77
2023/09/28 06:39:44;;;;;;;4.20;3.53;;;;;;;14.78;100.00;100482.53;4960514;28;20239;-76
2023/09/28 06:42:09;;;;;;;3.73;3.43;;;;;;;14.85;100.00;100500.59;4966275;28;20244;-76
2023/09/28 06:44:35;;;;;;;4.40;4.00;;;;;;;14.88;100.00;100492.72;4969960;28;20216;-77
2023/09/28 06:47:00;;;;;;;5.07;4.57;;;;;;;14.90;100.00;100497.00;4962155;28;20183;-76
2023/09/28 06:49:27;;;;;;;6.07;4.97;;;;;;;14.91;100.00;100495.25;4962255;28;20205;-77
2023/09/28 06:51:53;;;;;;;5.37;4.40;;;;;;;14.91;100.00;100500.47;4958613;28;20194;-76
2023/09/28 06:54:19;;;;;;;4.30;3.87;;;;;;;14.92;100.00;100504.78;4963835;28;20193;-76
2023/09/28 06:56:48;;;;;;;4.27;3.87;;;;;;;14.95;100.00;100512.53;4962688;28;20186;-76
2023/09/28 06:59:13;;;;;;;4.00;3.70;;;;;;;15.00;100.00;100515.03;4960076;28;20273;-77
2023/09/28 07:01:39;;;;;;;5.03;4.27;;;;;;;15.12;100.00;100519.09;4967304;28;20198;-77
2023/09/28 07:04:04;;;;;;;3.70;3.30;;;;;;;15.22;100.00;100524.03;4959938;28;20568;-77
2023/09/28 07:06:30;;;;;;;3.70;3.40;;;;;;;15.32;100.00;100524.66;4962175;28;20212;-78
2023/09/28 07:08:55;;;;;;;3.63;3.33;;;;;;;15.42;100.00;100527.91;4966665;28;20216;-77
2023/09/28 07:11:20;;;;;;;4.27;3.70;;;;;;;15.54;100.00;100527.59;4958137;28;20182;-77
2023/09/28 07:13:46;;;;;;;3.90;3.43;;;;;;;15.66;100.00;100528.16;4953302;28;20193;-77
2023/09/28 07:16:11;;;;;;;3.90;3.50;;;;;;;15.78;100.00;100534.81;4960269;28;20208;-77
2023/09/28 07:18:37;;;;;;;4.03;3.40;;;;;;;15.94;100.00;100543.97;4957482;28;20252;-77
2023/09/28 07:21:03;;;;;;;7.47;4.00;;;;;;;16.13;100.00;100541.72;4957136;28;20217;-77
2023/09/28 07:23:28;;;;;;;3.60;3.27;;;;;;;16.39;100.00;100541.88;4963862;28;20185;-77
2023/09/28 07:25:55;;;;;;;3.67;3.37;;;;;;;16.63;100.00;100540.28;4965111;28;20523;-76
2023/09/28 07:28:20;;;;;;;4.47;3.97;;;;;;;16.86;100.00;100534.34;4964717;28;20630;-77
2023/09/28 07:30:46;;;;;;;3.63;3.33;;;;;;;17.11;100.00;100541.44;4968225;28;20184;-77
2023/09/28 07:33:13;;;;;;;4.10;3.63;;;;;;;17.34;100.00;100535.47;4963733;28;20194;-77
2023/09/28 07:35:39;;;;;;;4.53;3.50;;;;;;;17.57;100.00;100539.06;4971916;28;20188;-80
2023/09/28 07:38:04;;;;;;;4.13;3.73;;;;;;;17.69;100.00;100537.81;4999065;28;20562;-77
2023/09/28 07:40:30;;;;;;;4.13;3.57;;;;;;;17.77;100.00;100533.16;4959201;28;20206;-77
2023/09/28 07:42:55;;;;;;;4.00;3.60;;;;;;;17.85;100.00;100532.03;4964244;28;20194;-79
2023/09/28 07:45:20;;;;;;;5.00;3.90;;;;;;;17.90;100.00;100530.09;4961438;28;20559;-78
2023/09/28 07:47:46;;;;;;;3.73;3.43;;;;;;;17.97;100.00;100535.09;4967062;28;20541;-77
2023/09/28 07:50:14;;;;;;;4.17;3.77;;;;;;;18.06;100.00;100535.69;4969788;28;20257;-77
2023/09/28 07:52:39;;;;;;;3.87;3.50;;;;;;;18.10;100.00;100534.63;4969006;28;20188;-78
2023/09/28 07:55:05;;;;;;;4.57;3.60;;;;;;;18.09;100.00;100533.78;4974758;28;20186;-77
2023/09/28 07:57:32;;;;;;;4.47;3.17;;;;;;;18.11;100.00;100534.59;4967070;28;20332;-78
2023/09/28 07:59:57;;;;;;;4.00;3.70;;;;;;;18.20;100.00;100532.53;4961477;28;20210;-76
2023/09/28 08:02:23;;;;;;;3.47;3.17;;;;;;;18.26;100.00;100532.31;4962099;28;20201;-77
2023/09/28 08:04:53;;;;;;;3.47;3.10;;;;;;;18.31;100.00;100526.91;4976855;28;20186;-77
2023/09/28 08:07:18;;;;;;;3.50;3.20;;;;;;;18.38;100.00;100533.59;4976979;28;20178;-77
2023/09/28 08:09:43;;;;;;;3.60;3.30;;;;;;;18.47;100.00;100541.13;4974765;28;20202;-77
2023/09/28 08:12:08;;;;;;;3.57;3.27;;;;;;;18.55;100.00;100540.84;4975687;28;20186;-77
2023/09/28 08:14:34;;;;;;;3.87;3.47;;;;;;;18.60;100.00;100544.16;4969751;28;20615;-77
2023/09/28 08:16:59;;;;;;;3.60;3.30;;;;;;;18.70;100.00;100547.25;4970738;28;20178;-78
2023/09/28 08:19:25;;;;;;;4.63;3.87;;;;;;;18.79;100.00;100549.53;4965751;28;20320;-77
2023/09/28 08:21:50;;;;;;;4.60;4.10;;;;;;;18.88;100.00;100551.78;4970354;28;20186;-77
2023/09/28 08:24:16;;;;;;;5.70;3.60;;;;;;;18.91;100.00;100550.78;4973080;28;20494;-78
2023/09/28 08:26:42;;;;;;;4.83;3.90;;;;;;;18.91;100.00;100552.59;4979283;28;20185;-78
2023/09/28 08:29:08;;;;;;;4.40;4.00;;;;;;;18.97;100.00;100553.22;4979804;28;20201;-77
2023/09/28 08:31:33;;;;;;;4.17;3.77;;;;;;;18.99;100.00;100555.78;4980931;28;20185;-77
2023/09/28 08:33:59;;;;;;;4.07;3.67;;;;;;;19.11;100.00;100552.69;4979810;28;20217;-77
2023/09/28 08:36:27;;;;;;;4.37;3.97;;;;;;;19.23;100.00;100556.56;4988717;28;20226;-77
2023/09/28 08:38:56;;;;;;;5.10;4.30;;;;;;;19.21;100.00;100557.53;4972279;28;20764;-77
2023/09/28 08:41:41;;;;;;;4.77;3.97;;;;;;;19.38;100.00;100552.47;4979748;28;21008;-76
2023/09/28 08:44:06;;;;;;;3.43;3.13;;;;;;;19.41;100.00;100549.72;4972518;28;20235;-76
2023/09/28 08:46:40;;;;;;;4.87;4.30;;;;;;;19.58;100.00;100551.63;4980300;28;20273;-77
2023/09/28 08:49:07;;;;;;;4.20;3.80;;;;;;;19.65;100.00;100552.22;4979063;28;20285;-76
2023/09/28 08:51:35;;;;;;;6.40;4.03;;;;;;;19.78;100.00;100558.63;4966538;28;20190;-77
2023/09/28 08:54:03;;;;;;;4.43;3.60;;;;;;;19.85;100.00;100561.84;4968888;28;20592;-76
2023/09/28 08:56:30;;;;;;;4.13;3.73;;;;;;;19.92;100.00;100562.47;4977218;28;20170;-76
2023/09/28 08:58:58;;;;;;;4.37;3.57;;;;;;;20.04;100.00;100561.91;4978194;28;20214;-76
2023/09/28 09:01:25;;;;;;;5.57;3.90;;;;;;;20.16;100.00;100564.94;4965726;28;20683;-76
2023/09/28 09:03:50;;;;;;;5.37;3.93;;;;;;;20.27;100.00;100560.06;4973116;28;20177;-77
2023/09/28 09:06:16;;;;;;;4.90;3.40;;;;;;;20.34;100.00;100572.00;4976767;28;20669;-78
2023/09/28 09:08:48;;;;;;;4.67;3.63;;;;;;;20.44;100.00;100572.41;4982704;28;20208;-76
2023/09/28 09:11:16;;;;;;;5.07;4.07;;;;;;;20.51;100.00;100563.34;4978521;28;20288;-77
2023/09/28 09:13:49;;;;;;;4.77;4.23;;;;;;;20.58;100.00;100569.16;4972979;28;20668;-77
2023/09/28 09:16:14;;;;;;;4.43;3.87;;;;;;;20.67;100.00;100565.25;4970179;28;20541;-77
2023/09/28 09:18:41;;;;;;;7.43;4.43;;;;;;;20.85;100.00;100571.44;4975013;28;20205;-77
2023/09/28 09:21:07;;;;;;;5.97;4.00;;;;;;;20.91;100.00;100572.94;4979833;28;20208;-77
2023/09/28 09:23:33;;;;;;;5.43;4.17;;;;;;;20.79;100.00;100575.22;4970797;28;20182;-78
2023/09/28 09:25:58;;;;;;;4.10;3.70;;;;;;;20.90;100.00;100574.72;4975353;28;20192;-76
2023/09/28 09:28:32;;;;;;;5.93;4.70;;;;;;;20.91;99.56;100578.19;4965478;28;20234;-77
2023/09/28 09:30:58;;;;;;;5.83;3.57;;;;;;;21.07;100.00;100579.16;4966138;28;20284;-78
2023/09/28 09:33:24;;;;;;;5.97;4.17;;;;;;;21.26;99.17;100563.31;4988294;28;20737;-77
2023/09/28 09:35:51;;;;;;;5.50;4.40;;;;;;;21.35;99.78;100558.53;4997801;28;20196;-77
2023/09/28 09:38:22;;;;;;;4.23;3.83;;;;;;;21.42;99.83;100554.66;4972134;28;20757;-78
2023/09/28 09:40:57;;;;;;;4.63;3.83;;;;;;;21.50;99.72;100552.50;4971644;28;20206;-78
2023/09/28 09:43:23;;;;;;;5.50;3.97;;;;;;;21.58;98.21;100554.75;4958799;28;20678;-77
2023/09/28 09:45:48;;;;;;;4.07;3.77;;;;;;;21.67;98.04;100554.28;4973872;28;20185;-79
2023/09/28 09:48:14;;;;;;;4.00;3.57;;;;;;;21.66;98.39;100547.31;4971616;28;20599;-78
2023/09/28 09:50:40;;;;;;;4.17;3.77;;;;;;;21.76;98.39;100543.31;4974672;28;20195;-77
2023/09/28 09:53:05;;;;;;;6.80;4.27;;;;;;;21.78;97.88;100533.50;4970024;28;20182;-77
2023/09/28 09:55:32;;;;;;;4.30;3.90;;;;;;;21.80;97.87;100536.09;4965700;28;20901;-77
2023/09/28 09:58:02;;;;;;;4.17;3.77;;;;;;;21.89;98.23;100529.50;4964994;28;20185;-78
2023/09/28 10:00:31;;;;;;;4.30;3.57;;;;;;;22.00;98.05;100528.94;4963400;28;20254;-76
2023/09/28 10:02:58;;;;;;;4.33;3.93;;;;;;;22.16;95.48;100518.41;4962984;28;20202;-77
2023/09/28 10:05:27;;;;;;;3.80;3.50;;;;;;;22.19;96.17;100518.25;4964122;28;20182;-77
2023/09/28 10:07:54;;;;;;;6.33;3.90;;;;;;;22.25;97.33;100504.72;4968672;28;20185;-77
2023/09/28 10:10:20;;;;;;;5.97;3.50;;;;;;;22.41;97.14;100511.78;4966138;28;20216;-78
2023/09/28 10:12:47;;;;;;;5.07;3.90;;;;;;;22.47;96.63;100499.13;4964446;28;20190;-76
2023/09/28 10:15:14;;;;;;;4.33;3.87;;;;;;;22.57;96.82;100502.13;4963140;28;20196;-76
2023/09/28 10:17:40;;;;;;;4.40;3.87;;;;;;;22.59;96.82;100492.34;4963647;28;20306;-76
2023/09/28 10:20:07;;;;;;;4.10;3.70;;;;;;;22.63;97.11;100499.16;4963993;28;20217;-76
2023/09/28 10:22:32;;;;;;;3.43;3.13;;;;;;;22.67;96.85;100505.97;4957461;28;20221;-76
2023/09/28 10:24:57;;;;;;;4.10;3.70;;;;;;;22.84;95.62;100494.44;4961347;28;22089;-77
2023/09/28 10:27:23;;;;;;;6.90;3.63;;;;;;;22.84;95.52;100501.47;4962332;28;20225;-77
2023/09/28 10:29:48;;;;;;;4.67;4.10;;;;;;;22.77;93.24;100508.91;4962142;28;20198;-77
2023/09/28 10:32:30;;;;;;;4.53;4.13;;;;;;;22.74;92.35;100503.81;4974179;28;20183;-76
2023/09/28 10:35:11;;;;;;;4.93;4.07;;;;;;;22.97;92.09;100512.19;4963080;28;20703;-76
2023/09/28 10:37:37;;;;;;;6.17;4.03;;;;;;;22.97;90.90;100514.84;4964767;28;20200;-77
2023/09/28 10:40:06;;;;;;;4.97;4.27;;;;;;;23.10;90.30;100523.75;4977168;28;20198;-77
2023/09/28 10:42:32;;;;;;;5.50;4.00;;;;;;;23.20;89.21;100513.53;4963344;28;20213;-77
2023/09/28 10:45:00;;;;;;;5.70;3.70;;;;;;;23.23;88.40;100521.28;4966285;28;20196;-77
2023/09/28 10:47:27;;;;;;;3.90;3.33;;;;;;;23.32;86.96;100516.38;4962188;28;20184;-77
2023/09/28 10:49:59;;;;;;;4.97;3.50;;;;;;;23.43;86.73;100519.25;4967436;28;20198;-78
2023/09/28 10:52:25;;;;;;;4.60;3.33;;;;;;;23.42;86.25;100520.19;4961390;28;20491;-77
2023/09/28 10:54:51;;;;;;;3.40;3.10;;;;;;;23.37;86.03;100517.81;4961356;28;20356;-77
2023/09/28 10:57:16;;;;;;;5.33;3.83;;;;;;;23.19;84.88;100521.53;4974349;28;20571;-78
2023/09/28 10:59:41;;;;;;;4.17;3.37;;;;;;;23.27;83.80;100517.53;4973176;28;20694;-76
2023/09/28 11:02:08;;;;;;;5.07;3.90;;;;;;;23.39;85.04;100513.28;4977247;28;20261;-79
2023/09/28 11:04:37;;;;;;;3.83;3.50;;;;;;;23.29;83.42;100514.78;4964196;28;20279;-76
2023/09/28 11:07:03;;;;;;;4.13;3.83;;;;;;;23.50;83.54;100522.38;4967783;28;20269;-77
2023/09/28 11:09:29;;;;;;;4.73;3.63;;;;;;;23.57;84.15;100516.66;4972791;28;20209;-77
2023/09/28 11:11:55;;;;;;;4.53;3.80;;;;;;;23.65;84.31;100515.31;4960576;28;20190;-77
2023/09/28 11:14:21;;;;;;;5.07;3.97;;;;;;;23.70;82.54;100507.97;4975312;28;20729;-77
2023/09/28 11:16:49;;;;;;;3.67;3.37;;;;;;;23.59;81.83;100505.97;4968845;28;20202;-78